createdAt,value
2023-01-07T00:02:52.810Z,5.08
2023-01-07T00:05:21.113Z,5.07
2023-01-07T00:07:49.229Z,5.07
2023-01-07T00:10:19.495Z,5.06
2023-01-07T00:13:00.100Z,5.03
2023-01-07T00:15:30.627Z,5.01
2023-01-07T00:18:05.577Z,5.00
2023-01-07T00:20:33.825Z,4.98
2023-01-07T00:23:02.138Z,4.97
2023-01-07T00:25:38.467Z,4.97
2023-01-07T00:28:09.071Z,4.96
2023-01-07T00:30:37.419Z,4.97
2023-01-07T00:33:09.751Z,4.97
2023-01-07T00:35:38.166Z,4.98
2023-01-07T00:38:08.956Z,4.99
2023-01-07T00:40:38.033Z,5.00
2023-01-07T00:43:08.725Z,5.01
2023-01-07T00:45:43.174Z,5.01
2023-01-07T00:48:13.636Z,5.01
2023-01-07T00:50:43.082Z,5.01
2023-01-07T00:53:12.410Z,5.01
2023-01-07T00:55:40.630Z,5.02
2023-01-07T00:58:14.531Z,5.04
2023-01-07T01:00:42.958Z,5.03
2023-01-07T01:03:12.090Z,5.05
2023-01-07T01:05:40.744Z,5.06
2023-01-07T01:08:09.493Z,5.07
2023-01-07T01:10:38.515Z,5.09
2023-01-07T01:13:06.772Z,5.10
2023-01-07T01:15:34.982Z,5.12
2023-01-07T01:18:03.272Z,5.14
2023-01-07T01:20:31.480Z,5.16
2023-01-07T01:22:59.510Z,5.17
2023-01-07T01:25:27.556Z,5.17
2023-01-07T01:27:55.586Z,5.15
2023-01-07T01:30:24.286Z,5.14
2023-01-07T01:32:53.221Z,5.12
2023-01-07T01:35:21.495Z,5.10
2023-01-07T01:37:51.945Z,5.11
2023-01-07T01:40:20.156Z,5.11
2023-01-07T01:42:49.647Z,5.11
2023-01-07T01:45:18.616Z,5.09
2023-01-07T01:47:49.067Z,5.07
2023-01-07T01:50:25.188Z,5.06
2023-01-07T01:53:01.178Z,5.06
2023-01-07T01:55:35.740Z,5.07
2023-01-07T01:58:09.936Z,5.07
2023-01-07T02:00:38.972Z,5.07
2023-01-07T02:03:11.945Z,5.08
2023-01-07T02:05:42.242Z,5.09
2023-01-07T02:08:10.589Z,5.09
2023-01-07T02:10:39.846Z,5.10
2023-01-07T02:13:36.702Z,5.10
2023-01-07T02:16:19.741Z,5.11
2023-01-07T02:19:37.237Z,5.12
2023-01-07T02:22:31.538Z,5.12
2023-01-07T02:25:22.013Z,5.12
2023-01-07T02:27:56.184Z,5.13
2023-01-07T02:31:09.634Z,5.13
2023-01-07T02:34:09.962Z,5.13
2023-01-07T02:37:01.020Z,5.14
2023-01-07T02:39:44.731Z,5.14
2023-01-07T02:42:58.093Z,5.13
2023-01-07T02:45:32.678Z,5.13
2023-01-07T02:48:12.105Z,5.13
2023-01-07T02:50:41.228Z,5.14
2023-01-07T02:53:15.584Z,5.15
2023-01-07T02:56:05.121Z,5.18
2023-01-07T02:58:56.432Z,5.19
2023-01-07T03:01:58.716Z,5.20
2023-01-07T03:04:42.233Z,5.21
2023-01-07T03:07:35.960Z,5.22
2023-01-07T03:10:28.273Z,5.22
2023-01-07T03:13:06.336Z,5.22
2023-01-07T03:15:54.075Z,5.21
2023-01-07T03:18:44.698Z,5.21
2023-01-07T03:21:20.307Z,5.20
2023-01-07T03:23:57.027Z,5.21
2023-01-07T03:26:39.604Z,5.23
2023-01-07T03:29:20.179Z,5.28
2023-01-07T03:32:03.571Z,5.34
2023-01-07T03:34:34.542Z,5.40
2023-01-07T03:37:09.316Z,5.45
2023-01-07T03:39:40.536Z,5.49
2023-01-07T03:42:31.576Z,5.53
2023-01-07T03:45:03.378Z,5.55
2023-01-07T03:47:40.995Z,5.55
2023-01-07T03:50:12.496Z,5.55
2023-01-07T03:52:45.115Z,5.54
2023-01-07T03:55:13.752Z,5.54
2023-01-07T03:57:42.872Z,5.53
2023-01-07T04:00:12.354Z,5.51
2023-01-07T04:02:45.477Z,5.49
2023-01-07T04:05:22.188Z,5.47
2023-01-07T04:07:50.443Z,5.46
2023-01-07T04:10:21.904Z,5.45
2023-01-07T04:12:50.074Z,5.42
2023-01-07T04:15:18.399Z,5.39
2023-01-07T04:17:46.520Z,5.37
2023-01-07T04:20:14.946Z,5.33
2023-01-07T04:22:44.063Z,5.29
2023-01-07T04:25:12.262Z,5.25
2023-01-07T04:27:40.526Z,5.25
2023-01-07T04:30:09.340Z,5.27
2023-01-07T04:32:37.365Z,5.30
2023-01-07T04:35:05.550Z,5.33
2023-01-07T04:37:34.599Z,5.36
2023-01-07T04:40:03.616Z,5.39
2023-01-07T04:42:35.190Z,5.41
2023-01-07T04:45:04.252Z,5.44
2023-01-07T04:47:32.934Z,5.47
2023-01-07T04:50:01.165Z,5.50
2023-01-07T04:52:32.215Z,5.51
2023-01-07T04:55:00.535Z,5.52
2023-01-07T04:57:29.086Z,5.54
2023-01-07T04:59:57.452Z,5.55
2023-01-07T05:02:25.664Z,5.56
2023-01-07T05:04:54.142Z,5.58
2023-01-07T05:07:22.723Z,5.59
2023-01-07T05:09:50.949Z,5.60
2023-01-07T05:12:24.549Z,5.62
2023-01-07T05:14:55.299Z,5.64
2023-01-07T05:17:30.320Z,5.66
2023-01-07T05:20:10.182Z,5.67
2023-01-07T05:22:39.378Z,5.69
2023-01-07T05:25:16.205Z,5.71
2023-01-07T05:27:47.619Z,5.73
2023-01-07T05:30:15.993Z,5.74
2023-01-07T05:32:45.874Z,5.76
2023-01-07T05:35:14.958Z,5.78
2023-01-07T05:37:45.779Z,5.79
2023-01-07T05:40:14.762Z,5.80
2023-01-07T05:42:43.861Z,5.81
2023-01-07T05:45:12.751Z,5.83
2023-01-07T05:47:43.218Z,5.84
2023-01-07T05:50:11.305Z,5.85
2023-01-07T05:52:39.373Z,5.85
2023-01-07T05:55:08.656Z,5.86
2023-01-07T05:57:36.777Z,5.86
2023-01-07T06:00:07.898Z,5.87
2023-01-07T06:02:42.660Z,5.87
2023-01-07T06:05:10.960Z,5.87
2023-01-07T06:07:40.416Z,5.86
2023-01-07T06:10:11.831Z,5.86
2023-01-07T06:12:42.384Z,5.86
2023-01-07T06:15:11.012Z,5.87
2023-01-07T06:17:39.224Z,5.86
2023-01-07T06:20:09.361Z,5.86
2023-01-07T06:22:37.524Z,5.85
2023-01-07T06:25:06.008Z,5.84
2023-01-07T06:27:34.816Z,5.85
2023-01-07T06:30:06.755Z,5.85
2023-01-07T06:32:42.473Z,5.87
2023-01-07T06:35:13.574Z,5.89
2023-01-07T06:37:41.778Z,5.91
2023-01-07T06:40:12.277Z,5.93
2023-01-07T06:43:06.544Z,5.94
2023-01-07T06:45:46.592Z,5.97
2023-01-07T06:48:17.016Z,5.99
2023-01-07T06:50:46.389Z,6.02
2023-01-07T06:53:14.631Z,6.05
2023-01-07T06:55:51.862Z,6.08
2023-01-07T06:58:22.631Z,6.12
2023-01-07T07:00:51.326Z,6.15
2023-01-07T07:03:19.696Z,6.19
2023-01-07T07:05:50.267Z,6.23
2023-01-07T07:08:18.513Z,6.26
2023-01-07T07:10:50.135Z,6.30
2023-01-07T07:13:18.523Z,6.32
2023-01-07T07:15:50.152Z,6.36
2023-01-07T07:18:21.918Z,6.40
2023-01-07T07:20:50.099Z,6.43
2023-01-07T07:23:18.365Z,6.49
2023-01-07T07:25:48.349Z,6.54
2023-01-07T07:28:18.862Z,6.59
2023-01-07T07:30:51.015Z,6.64
2023-01-07T07:33:19.810Z,6.71
2023-01-07T07:35:52.833Z,6.75
2023-01-07T07:38:23.949Z,6.78
2023-01-07T07:40:56.824Z,6.82
2023-01-07T07:43:29.825Z,6.86
2023-01-07T07:46:06.723Z,6.90
2023-01-07T07:48:39.251Z,6.94
2023-01-07T07:51:08.791Z,6.99
2023-01-07T07:53:40.277Z,7.04
2023-01-07T07:56:15.261Z,7.09
2023-01-07T07:58:47.172Z,7.15
2023-01-07T08:01:19.123Z,7.22
2023-01-07T08:03:50.557Z,7.28
2023-01-07T08:06:26.266Z,7.35
2023-01-07T08:08:56.797Z,7.41
2023-01-07T08:11:24.901Z,7.47
2023-01-07T08:13:55.443Z,7.52
2023-01-07T08:16:34.485Z,7.57
2023-01-07T08:19:05.024Z,7.64
2023-01-07T08:21:35.582Z,7.70
2023-01-07T08:24:04.177Z,7.75
2023-01-07T08:26:32.887Z,7.79
2023-01-07T08:29:00.995Z,7.83
2023-01-07T08:31:29.392Z,7.87
2023-01-07T08:33:57.759Z,7.90
2023-01-07T08:36:26.073Z,7.93
2023-01-07T08:38:55.382Z,7.96
2023-01-07T08:41:25.953Z,7.98
2023-01-07T08:43:54.481Z,7.99
2023-01-07T08:47:21.417Z,8.01
2023-01-07T08:49:28.948Z,8.02
2023-01-07T08:52:03.396Z,8.03
2023-01-07T08:54:42.925Z,8.05
2023-01-07T08:57:20.752Z,8.09
2023-01-07T08:59:50.764Z,8.12
2023-01-07T09:02:21.896Z,8.15
2023-01-07T09:04:50.067Z,8.17
2023-01-07T09:07:18.096Z,8.21
2023-01-07T09:09:45.893Z,8.26
2023-01-07T09:12:13.820Z,8.31
2023-01-07T09:14:44.266Z,8.37
2023-01-07T09:17:12.324Z,8.45
2023-01-07T09:19:40.401Z,8.49
2023-01-07T09:22:08.415Z,8.55
2023-01-07T09:24:36.421Z,8.60
2023-01-07T09:27:04.367Z,8.64
2023-01-07T09:29:32.451Z,8.69
2023-01-07T09:32:00.315Z,8.74
2023-01-07T09:34:28.284Z,8.78
2023-01-07T09:36:56.177Z,8.84
2023-01-07T09:39:24.116Z,8.89
2023-01-07T09:42:07.265Z,8.96
2023-01-07T09:44:41.268Z,9.01
2023-01-07T09:47:11.269Z,9.07
2023-01-07T09:49:40.939Z,9.12
2023-01-07T09:52:16.024Z,9.15
2023-01-07T09:54:48.452Z,9.17
2023-01-07T09:57:17.884Z,9.20
2023-01-07T09:59:46.338Z,9.22
2023-01-07T10:02:25.135Z,9.24
2023-01-07T10:05:24.725Z,9.31
2023-01-07T10:08:29.436Z,9.41
2023-01-07T10:11:18.942Z,9.49
2023-01-07T10:14:18.426Z,9.56
2023-01-07T10:17:05.896Z,9.63
2023-01-07T10:19:47.988Z,9.70
2023-01-07T10:22:43.901Z,9.76
2023-01-07T10:25:26.531Z,9.79
2023-01-07T10:28:01.109Z,9.79
2023-01-07T10:30:49.814Z,9.77
2023-01-07T10:33:18.038Z,9.76
2023-01-07T10:35:52.976Z,9.76
2023-01-07T10:38:25.082Z,9.76
2023-01-07T10:41:02.234Z,9.78
2023-01-07T10:43:36.748Z,9.76
2023-01-07T10:46:48.226Z,9.76
2023-01-07T10:50:13.643Z,9.77
2023-01-07T10:52:55.741Z,9.78
2023-01-07T10:55:32.627Z,9.80
2023-01-07T10:58:01.588Z,9.83
2023-01-07T11:00:33.112Z,9.83
2023-01-07T11:03:03.515Z,9.83
2023-01-07T11:05:38.637Z,9.85
2023-01-07T11:08:33.983Z,9.88
2023-01-07T11:11:06.499Z,9.92
2023-01-07T11:13:37.974Z,10.00
2023-01-07T11:16:12.199Z,10.08
2023-01-07T11:19:01.878Z,10.13
2023-01-07T11:21:48.652Z,10.18
2023-01-07T11:24:35.626Z,10.23
2023-01-07T11:27:14.839Z,10.27
2023-01-07T11:29:56.685Z,10.25
2023-01-07T11:32:31.355Z,10.23
2023-01-07T11:35:07.972Z,10.23
2023-01-07T11:37:42.208Z,10.28
2023-01-07T11:40:13.366Z,10.34
2023-01-07T11:42:48.423Z,10.38
2023-01-07T11:45:27.152Z,10.42
2023-01-07T11:47:59.551Z,10.43
2023-01-07T11:50:35.953Z,10.46
2023-01-07T11:53:21.840Z,10.49
2023-01-07T11:56:11.186Z,10.51
2023-01-07T11:58:44.813Z,10.50
2023-01-07T12:01:15.116Z,10.51
2023-01-07T12:03:52.622Z,10.50
2023-01-07T12:06:35.301Z,10.47
2023-01-07T12:09:24.954Z,10.44
2023-01-07T12:11:56.891Z,10.41
2023-01-07T12:14:39.972Z,10.40
2023-01-07T12:17:20.535Z,10.42
2023-01-07T12:19:55.083Z,10.44
2023-01-07T12:22:34.522Z,10.46
2023-01-07T12:25:34.608Z,10.49
2023-01-07T12:28:33.334Z,10.48
2023-01-07T12:31:17.150Z,10.48
2023-01-07T12:33:54.075Z,10.48
2023-01-07T12:36:54.292Z,10.46
2023-01-07T12:39:33.417Z,10.45
2023-01-07T12:42:09.867Z,10.46
2023-01-07T12:44:45.127Z,10.47
2023-01-07T12:47:36.726Z,10.49
2023-01-07T12:50:10.842Z,10.49
2023-01-07T12:53:00.584Z,10.47
2023-01-07T12:55:31.784Z,10.47
2023-01-07T12:58:15.224Z,10.48
2023-01-07T13:01:11.945Z,10.49
2023-01-07T13:03:58.402Z,10.49
2023-01-07T13:06:51.142Z,10.50
2023-01-07T13:09:39.126Z,10.51
2023-01-07T13:12:45.336Z,10.52
2023-01-07T13:15:22.975Z,10.52
2023-01-07T13:17:54.090Z,10.55
2023-01-07T13:20:54.274Z,10.61
2023-01-07T13:23:45.431Z,10.66
2023-01-07T13:26:35.406Z,10.72
2023-01-07T13:29:28.825Z,10.76
2023-01-07T13:32:28.001Z,10.77
2023-01-07T13:35:25.398Z,10.73
2023-01-07T13:38:19.071Z,10.73
2023-01-07T13:41:11.552Z,10.75
2023-01-07T13:44:15.270Z,10.75
2023-01-07T13:46:46.748Z,10.71
2023-01-07T13:49:34.482Z,10.66
2023-01-07T13:52:22.864Z,10.58
2023-01-07T13:54:51.637Z,10.52
2023-01-07T13:57:31.324Z,10.46
2023-01-07T14:00:01.819Z,10.40
2023-01-07T14:02:58.279Z,10.35
2023-01-07T14:05:29.451Z,10.32
2023-01-07T14:08:01.307Z,10.30
2023-01-07T14:10:33.832Z,10.24
2023-01-07T14:13:33.783Z,10.20
2023-01-07T14:16:23.711Z,10.17
2023-01-07T14:19:27.203Z,10.14
2023-01-07T14:21:55.327Z,10.11
2023-01-07T14:24:37.835Z,10.09
2023-01-07T14:27:37.312Z,10.06
2023-01-07T14:30:27.290Z,10.04
2023-01-07T14:33:07.374Z,10.01
2023-01-07T14:35:41.595Z,9.98
2023-01-07T14:38:31.843Z,9.96
2023-01-07T14:41:04.386Z,9.93
2023-01-07T14:43:47.478Z,9.90
2023-01-07T14:46:24.502Z,9.85
2023-01-07T14:49:30.239Z,9.80
2023-01-07T14:52:27.019Z,9.73
2023-01-07T14:55:01.202Z,9.65
2023-01-07T14:57:38.767Z,9.59
2023-01-07T15:00:54.934Z,9.52
2023-01-07T15:03:45.772Z,9.44
2023-01-07T15:06:27.823Z,9.35
2023-01-07T15:09:23.824Z,9.25
2023-01-07T15:12:14.117Z,9.15
2023-01-07T15:15:03.794Z,9.05
2023-01-07T15:17:32.466Z,8.94
2023-01-07T15:20:05.759Z,8.84
2023-01-07T15:23:11.157Z,8.74
2023-01-07T15:26:03.265Z,8.62
2023-01-07T15:28:47.991Z,8.49
2023-01-07T15:31:42.899Z,8.35
2023-01-07T15:34:17.222Z,8.21
2023-01-07T15:36:48.859Z,8.10
2023-01-07T15:39:27.674Z,8.00
2023-01-07T15:41:57.587Z,7.88
2023-01-07T15:44:32.835Z,7.78
2023-01-07T15:47:01.240Z,7.67
2023-01-07T15:49:29.923Z,7.57
2023-01-07T15:52:01.873Z,7.49
2023-01-07T15:54:31.888Z,7.41
2023-01-07T15:57:04.751Z,7.36
2023-01-07T15:59:36.673Z,7.36
2023-01-07T16:02:17.176Z,7.36
2023-01-07T16:04:48.771Z,7.35
2023-01-07T16:07:27.695Z,7.31
2023-01-07T16:09:57.597Z,7.28
2023-01-07T16:12:37.653Z,7.23
2023-01-07T16:15:30.455Z,7.19
2023-01-07T16:18:21.990Z,7.15
2023-01-07T16:20:58.309Z,7.10
2023-01-07T16:23:32.965Z,7.06
2023-01-07T16:26:06.199Z,6.98
2023-01-07T16:28:41.054Z,6.90
2023-01-07T16:31:12.649Z,6.84
2023-01-07T16:33:43.019Z,6.78
2023-01-07T16:36:17.794Z,6.73
2023-01-07T16:38:50.425Z,6.66
2023-01-07T16:41:24.554Z,6.59
2023-01-07T16:43:57.677Z,6.53
2023-01-07T16:46:30.795Z,6.46
2023-01-07T16:49:11.096Z,6.41
2023-01-07T16:51:44.454Z,6.33
2023-01-07T16:54:28.892Z,6.26
2023-01-07T16:57:06.220Z,6.22
2023-01-07T16:59:38.245Z,6.18
2023-01-07T17:02:21.448Z,6.14
2023-01-07T17:04:49.722Z,6.11
2023-01-07T17:07:26.418Z,6.06
2023-01-07T17:09:58.134Z,6.01
2023-01-07T17:12:40.589Z,5.97
2023-01-07T17:15:31.815Z,5.93
2023-01-07T17:18:12.276Z,5.88
2023-01-07T17:20:47.109Z,5.83
2023-01-07T17:23:27.506Z,5.80
2023-01-07T17:25:58.828Z,5.74
2023-01-07T17:28:34.429Z,5.69
2023-01-07T17:31:03.518Z,5.64
2023-01-07T17:33:32.041Z,5.59
2023-01-07T17:36:00.146Z,5.55
2023-01-07T17:38:29.525Z,5.49
2023-01-07T17:40:57.813Z,5.43
2023-01-07T17:43:37.762Z,5.37
2023-01-07T17:46:13.156Z,5.32
2023-01-07T17:48:41.434Z,5.27
2023-01-07T17:51:11.694Z,5.21
2023-01-07T17:53:46.284Z,5.16
2023-01-07T17:56:17.199Z,5.12
2023-01-07T17:58:45.393Z,5.10
2023-01-07T18:01:22.074Z,5.09
2023-01-07T18:03:52.363Z,5.06
2023-01-07T18:06:23.415Z,5.03
2023-01-07T18:08:52.942Z,5.01
2023-01-07T18:11:43.678Z,5.00
2023-01-07T18:14:16.482Z,4.97
2023-01-07T18:16:44.738Z,4.95
2023-01-07T18:19:15.164Z,4.91
2023-01-07T18:21:43.343Z,4.88
2023-01-07T18:24:22.667Z,4.83
2023-01-07T18:26:52.019Z,4.80
2023-01-07T18:29:20.123Z,4.75
2023-01-07T18:31:48.188Z,4.72
2023-01-07T18:34:16.373Z,4.68
2023-01-07T18:36:44.387Z,4.64
2023-01-07T18:39:20.645Z,4.61
2023-01-07T18:41:50.393Z,4.59
2023-01-07T18:44:19.978Z,4.56
2023-01-07T18:46:48.400Z,4.54
2023-01-07T18:49:16.959Z,4.51
2023-01-07T18:51:47.221Z,4.49
2023-01-07T18:54:17.834Z,4.48
2023-01-07T18:56:46.020Z,4.47
2023-01-07T18:59:14.307Z,4.47
2023-01-07T19:01:42.701Z,4.47
2023-01-07T19:04:11.326Z,4.46
2023-01-07T19:06:42.151Z,4.45
2023-01-07T19:09:10.224Z,4.43
2023-01-07T19:11:38.624Z,4.42
2023-01-07T19:14:06.798Z,4.40
2023-01-07T19:16:35.900Z,4.39
2023-01-07T19:19:04.733Z,4.37
2023-01-07T19:21:32.738Z,4.36
2023-01-07T19:24:08.244Z,4.38
2023-01-07T19:26:36.248Z,4.37
2023-01-07T19:29:04.353Z,4.37
2023-01-07T19:31:32.557Z,4.37
2023-01-07T19:34:04.076Z,4.34
2023-01-07T19:36:32.389Z,4.31
2023-01-07T19:39:00.335Z,4.28
2023-01-07T19:41:28.864Z,4.26
2023-01-07T19:44:01.116Z,4.24
2023-01-07T19:46:37.731Z,4.23
2023-01-07T19:49:13.664Z,4.22
2023-01-07T19:51:44.502Z,4.22
2023-01-07T19:54:16.065Z,4.21
2023-01-07T19:56:44.378Z,4.20
2023-01-07T19:59:14.410Z,4.19
2023-01-07T20:01:43.690Z,4.17
2023-01-07T20:04:14.197Z,4.15
2023-01-07T20:06:42.584Z,4.14
2023-01-07T20:09:24.829Z,4.10
2023-01-07T20:11:54.266Z,4.07
2023-01-07T20:14:24.814Z,4.05
2023-01-07T20:16:57.786Z,4.05
2023-01-07T20:19:32.476Z,4.04
2023-01-07T20:22:00.735Z,4.03
2023-01-07T20:24:29.757Z,4.02
2023-01-07T20:26:57.747Z,4.01
2023-01-07T20:29:30.079Z,4.01
2023-01-07T20:32:00.661Z,3.99
2023-01-07T20:34:31.245Z,3.96
2023-01-07T20:36:59.395Z,3.92
2023-01-07T20:39:27.571Z,3.89
2023-01-07T20:41:55.853Z,3.86
2023-01-07T20:44:25.933Z,3.83
2023-01-07T20:46:56.553Z,3.80
2023-01-07T20:49:24.796Z,3.78
2023-01-07T20:51:58.112Z,3.76
2023-01-07T20:54:33.837Z,3.75
2023-01-07T20:57:02.730Z,3.73
2023-01-07T20:59:32.884Z,3.73
2023-01-07T21:02:04.256Z,3.73
2023-01-07T21:04:32.681Z,3.72
2023-01-07T21:07:02.221Z,3.71
2023-01-07T21:09:33.040Z,3.70
2023-01-07T21:12:11.004Z,3.67
2023-01-07T21:14:51.648Z,3.65
2023-01-07T21:17:39.832Z,3.63
2023-01-07T21:20:18.733Z,3.61
2023-01-07T21:22:53.289Z,3.60
2023-01-07T21:25:40.331Z,3.57
2023-01-07T21:28:11.507Z,3.55
2023-01-07T21:30:44.838Z,3.53
2023-01-07T21:33:17.598Z,3.52
2023-01-07T21:36:02.622Z,3.51
2023-01-07T21:38:35.620Z,3.49
2023-01-07T21:41:32.193Z,3.47
2023-01-07T21:44:03.929Z,3.45
2023-01-07T21:47:03.123Z,3.43
2023-01-07T21:49:36.012Z,3.42
2023-01-07T21:52:04.303Z,3.41
2023-01-07T21:54:34.605Z,3.39
2023-01-07T21:57:02.764Z,3.37
2023-01-07T21:59:35.081Z,3.35
2023-01-07T22:02:03.283Z,3.33
2023-01-07T22:04:31.533Z,3.31
2023-01-07T22:06:59.643Z,3.28
2023-01-07T22:09:27.670Z,3.26
2023-01-07T22:11:55.814Z,3.23
2023-01-07T22:14:24.534Z,3.21
2023-01-07T22:16:52.661Z,3.18
2023-01-07T22:19:20.766Z,3.15
2023-01-07T22:21:48.819Z,3.11
2023-01-07T22:24:16.923Z,3.08
2023-01-07T22:26:44.900Z,3.05
2023-01-07T22:29:14.825Z,3.03
2023-01-07T22:31:43.088Z,3.00
2023-01-07T22:34:11.217Z,2.97
2023-01-07T22:36:55.958Z,2.95
2023-01-07T22:39:32.523Z,2.93
2023-01-07T22:42:06.753Z,2.91
2023-01-07T22:44:40.697Z,2.89
2023-01-07T22:47:13.406Z,2.87
2023-01-07T22:49:45.146Z,2.86
2023-01-07T22:52:22.650Z,2.85
2023-01-07T22:54:50.643Z,2.85
2023-01-07T22:57:18.810Z,2.86
2023-01-07T22:59:47.283Z,2.87
2023-01-07T23:02:15.546Z,2.87
2023-01-07T23:04:54.171Z,2.87
2023-01-07T23:07:22.240Z,2.88
2023-01-07T23:09:51.640Z,2.87
2023-01-07T23:12:20.011Z,2.86
2023-01-07T23:14:48.216Z,2.84
2023-01-07T23:17:16.318Z,2.81
2023-01-07T23:19:44.459Z,2.78
2023-01-07T23:22:12.819Z,2.75
2023-01-07T23:24:40.999Z,2.73
2023-01-07T23:27:09.224Z,2.71
2023-01-07T23:29:38.967Z,2.71
2023-01-07T23:32:12.552Z,2.69
2023-01-07T23:34:43.021Z,2.68
2023-01-07T23:37:11.280Z,2.65
2023-01-07T23:39:39.418Z,2.61
2023-01-07T23:42:07.930Z,2.59
2023-01-07T23:44:36.112Z,2.57
2023-01-07T23:47:04.755Z,2.55
2023-01-07T23:49:32.968Z,2.53
2023-01-07T23:52:01.137Z,2.51
2023-01-07T23:54:30.554Z,2.50
2023-01-07T23:56:58.667Z,2.48
2023-01-07T23:59:26.966Z,2.45
